sensor_id;sensor_type;location;lat;lon;timestamp;temperature;humidity
38860;DHT22;24609;48.316;16.174;2023-08-20T00:01:22;19.00;99.90
38860;DHT22;24609;48.316;16.174;2023-08-20T00:03:50;19.10;99.90
38860;DHT22;24609;48.316;16.174;2023-08-20T00:06:16;19.10;99.90
38860;DHT22;24609;48.316;16.174;2023-08-20T00:08:42;19.00;99.90
38860;DHT22;24609;48.316;16.174;2023-08-20T00:11:08;19.00;99.90
38860;DHT22;24609;48.316;16.174;2023-08-20T00:13:35;19.00;99.90
38860;DHT22;24609;48.316;16.174;2023-08-20T00:16:01;18.90;99.90
38860;DHT22;24609;48.316;16.174;2023-08-20T00:18:27;19.00;99.90
38860;DHT22;24609;48.316;16.174;2023-08-20T00:20:54;18.90;99.90
38860;DHT22;24609;48.316;16.174;2023-08-20T00:23:20;18.80;99.90
38860;DHT22;24609;48.316;16.174;2023-08-20T00:25:46;18.80;99.90
38860;DHT22;24609;48.316;16.174;2023-08-20T00:28:12;18.80;99.90
38860;DHT22;24609;48.316;16.174;2023-08-20T00:30:37;18.80;99.90
38860;DHT22;24609;48.316;16.174;2023-08-20T00:33:03;18.80;99.90
38860;DHT22;24609;48.316;16.174;2023-08-20T00:35:29;18.80;99.90
38860;DHT22;24609;48.316;16.174;2023-08-20T00:37:55;18.80;99.90
38860;DHT22;24609;48.316;16.174;2023-08-20T00:40:20;18.90;99.90
38860;DHT22;24609;48.316;16.174;2023-08-20T00:42:46;18.90;99.90
38860;DHT22;24609;48.316;16.174;2023-08-20T00:45:12;18.90;99.90
38860;DHT22;24609;48.316;16.174;2023-08-20T00:47:38;18.90;99.90
38860;DHT22;24609;48.316;16.174;2023-08-20T00:50:04;18.80;99.90
38860;DHT22;24609;48.316;16.174;2023-08-20T00:52:32;18.80;99.90
38860;DHT22;24609;48.316;16.174;2023-08-20T00:54:58;18.80;99.90
38860;DHT22;24609;48.316;16.174;2023-08-20T00:57:25;18.80;99.90
38860;DHT22;24609;48.316;16.174;2023-08-20T00:59:53;18.90;99.90
38860;DHT22;24609;48.316;16.174;2023-08-20T01:02:19;19.00;99.90
38860;DHT22;24609;48.316;16.174;2023-08-20T01:04:46;19.00;99.90
38860;DHT22;24609;48.316;16.174;2023-08-20T01:07:39;19.00;99.90
38860;DHT22;24609;48.316;16.174;2023-08-20T01:10:24;19.00;99.90
38860;DHT22;24609;48.316;16.174;2023-08-20T01:12:51;18.90;99.90
38860;DHT22;24609;48.316;16.174;2023-08-20T01:15:17;18.90;99.90
38860;DHT22;24609;48.316;16.174;2023-08-20T01:17:43;18.90;99.90
38860;DHT22;24609;48.316;16.174;2023-08-20T01:20:12;18.90;99.90
38860;DHT22;24609;48.316;16.174;2023-08-20T01:30:51;18.90;99.90
38860;DHT22;24609;48.316;16.174;2023-08-20T01:33:18;18.70;99.90
38860;DHT22;24609;48.316;16.174;2023-08-20T01:35:44;18.60;99.90
38860;DHT22;24609;48.316;16.174;2023-08-20T01:38:10;18.60;99.90
38860;DHT22;24609;48.316;16.174;2023-08-20T01:40:36;18.60;99.90
38860;DHT22;24609;48.316;16.174;2023-08-20T01:43:02;18.80;99.90
38860;DHT22;24609;48.316;16.174;2023-08-20T01:45:27;18.70;99.90
38860;DHT22;24609;48.316;16.174;2023-08-20T01:47:53;18.60;99.90
38860;DHT22;24609;48.316;16.174;2023-08-20T01:50:19;18.40;99.90
38860;DHT22;24609;48.316;16.174;2023-08-20T01:52:44;18.40;99.90
38860;DHT22;24609;48.316;16.174;2023-08-20T01:55:11;18.40;99.90
38860;DHT22;24609;48.316;16.174;2023-08-20T01:57:37;18.50;99.90
38860;DHT22;24609;48.316;16.174;2023-08-20T02:00:03;18.50;99.90
38860;DHT22;24609;48.316;16.174;2023-08-20T02:02:32;18.50;99.90
38860;DHT22;24609;48.316;16.174;2023-08-20T02:04:58;18.40;99.90
38860;DHT22;24609;48.316;16.174;2023-08-20T02:07:24;18.30;99.90
38860;DHT22;24609;48.316;16.174;2023-08-20T02:09:49;18.30;99.90
38860;DHT22;24609;48.316;16.174;2023-08-20T02:12:15;18.30;99.90
38860;DHT22;24609;48.316;16.174;2023-08-20T02:14:41;18.30;99.90
38860;DHT22;24609;48.316;16.174;2023-08-20T02:17:07;18.30;99.90
38860;DHT22;24609;48.316;16.174;2023-08-20T02:19:33;18.30;99.90
38860;DHT22;24609;48.316;16.174;2023-08-20T02:21:59;18.20;99.90
38860;DHT22;24609;48.316;16.174;2023-08-20T02:24:24;18.20;99.90
38860;DHT22;24609;48.316;16.174;2023-08-20T02:26:50;18.10;99.90
38860;DHT22;24609;48.316;16.174;2023-08-20T02:29:16;18.10;99.90
38860;DHT22;24609;48.316;16.174;2023-08-20T02:31:42;18.10;99.90
38860;DHT22;24609;48.316;16.174;2023-08-20T02:34:07;18.10;99.90
38860;DHT22;24609;48.316;16.174;2023-08-20T02:36:33;18.00;99.90
38860;DHT22;24609;48.316;16.174;2023-08-20T02:38:59;18.00;99.90
38860;DHT22;24609;48.316;16.174;2023-08-20T02:41:24;17.90;99.90
38860;DHT22;24609;48.316;16.174;2023-08-20T02:43:50;17.90;99.90
38860;DHT22;24609;48.316;16.174;2023-08-20T02:46:16;17.90;99.90
38860;DHT22;24609;48.316;16.174;2023-08-20T02:48:41;17.80;99.90
38860;DHT22;24609;48.316;16.174;2023-08-20T02:51:07;17.80;99.90
38860;DHT22;24609;48.316;16.174;2023-08-20T02:53:32;17.80;99.90
38860;DHT22;24609;48.316;16.174;2023-08-20T02:55:58;17.90;99.90
38860;DHT22;24609;48.316;16.174;2023-08-20T02:58:24;18.00;99.90
38860;DHT22;24609;48.316;16.174;2023-08-20T03:00:50;18.10;99.90
38860;DHT22;24609;48.316;16.174;2023-08-20T03:03:15;18.10;99.90
38860;DHT22;24609;48.316;16.174;2023-08-20T03:05:42;18.10;99.90
38860;DHT22;24609;48.316;16.174;2023-08-20T03:08:08;18.20;99.90
38860;DHT22;24609;48.316;16.174;2023-08-20T03:10:34;18.10;99.90
38860;DHT22;24609;48.316;16.174;2023-08-20T03:13:01;18.00;99.90
38860;DHT22;24609;48.316;16.174;2023-08-20T03:15:28;17.90;99.90
38860;DHT22;24609;48.316;16.174;2023-08-20T03:17:54;17.80;99.90
38860;DHT22;24609;48.316;16.174;2023-08-20T03:20:20;17.70;99.90
38860;DHT22;24609;48.316;16.174;2023-08-20T03:22:45;17.60;99.90
38860;DHT22;24609;48.316;16.174;2023-08-20T03:25:11;17.60;99.90
38860;DHT22;24609;48.316;16.174;2023-08-20T03:27:37;17.70;99.90
38860;DHT22;24609;48.316;16.174;2023-08-20T03:30:03;17.80;99.90
38860;DHT22;24609;48.316;16.174;2023-08-20T03:32:29;17.80;99.90
38860;DHT22;24609;48.316;16.174;2023-08-20T03:34:55;17.80;99.90
38860;DHT22;24609;48.316;16.174;2023-08-20T03:37:21;17.80;99.90
38860;DHT22;24609;48.316;16.174;2023-08-20T03:39:48;17.90;99.90
38860;DHT22;24609;48.316;16.174;2023-08-20T03:42:13;17.90;99.90
38860;DHT22;24609;48.316;16.174;2023-08-20T03:44:39;17.90;99.90
38860;DHT22;24609;48.316;16.174;2023-08-20T03:47:05;18.00;99.90
38860;DHT22;24609;48.316;16.174;2023-08-20T03:49:31;17.90;99.90
38860;DHT22;24609;48.316;16.174;2023-08-20T03:51:57;17.90;99.90
38860;DHT22;24609;48.316;16.174;2023-08-20T03:54:22;17.90;99.90
38860;DHT22;24609;48.316;16.174;2023-08-20T03:56:48;17.90;99.90
38860;DHT22;24609;48.316;16.174;2023-08-20T03:59:13;17.80;99.90
38860;DHT22;24609;48.316;16.174;2023-08-20T04:01:39;17.80;99.90
38860;DHT22;24609;48.316;16.174;2023-08-20T04:04:05;17.70;99.90
38860;DHT22;24609;48.316;16.174;2023-08-20T04:06:31;17.70;99.90
38860;DHT22;24609;48.316;16.174;2023-08-20T04:08:56;17.70;99.90
38860;DHT22;24609;48.316;16.174;2023-08-20T04:11:22;17.80;99.90
38860;DHT22;24609;48.316;16.174;2023-08-20T04:13:48;17.90;99.90
38860;DHT22;24609;48.316;16.174;2023-08-20T04:16:13;17.90;99.90
38860;DHT22;24609;48.316;16.174;2023-08-20T04:18:39;18.00;99.90
38860;DHT22;24609;48.316;16.174;2023-08-20T04:21:06;18.10;99.90
38860;DHT22;24609;48.316;16.174;2023-08-20T04:23:32;18.10;99.90
38860;DHT22;24609;48.316;16.174;2023-08-20T04:25:58;18.10;99.90
38860;DHT22;24609;48.316;16.174;2023-08-20T04:28:24;18.00;99.90
38860;DHT22;24609;48.316;16.174;2023-08-20T04:30:52;17.90;99.90
38860;DHT22;24609;48.316;16.174;2023-08-20T04:33:20;18.10;99.90
38860;DHT22;24609;48.316;16.174;2023-08-20T04:35:46;18.30;99.90
38860;DHT22;24609;48.316;16.174;2023-08-20T04:38:12;18.60;99.90
38860;DHT22;24609;48.316;16.174;2023-08-20T04:40:37;18.90;99.90
38860;DHT22;24609;48.316;16.174;2023-08-20T04:43:03;19.10;99.90
38860;DHT22;24609;48.316;16.174;2023-08-20T04:45:29;19.30;99.90
38860;DHT22;24609;48.316;16.174;2023-08-20T04:47:54;19.40;99.90
38860;DHT22;24609;48.316;16.174;2023-08-20T04:50:20;19.70;99.90
38860;DHT22;24609;48.316;16.174;2023-08-20T04:52:46;19.50;99.90
38860;DHT22;24609;48.316;16.174;2023-08-20T04:55:11;19.30;99.90
38860;DHT22;24609;48.316;16.174;2023-08-20T04:57:37;19.30;99.90
38860;DHT22;24609;48.316;16.174;2023-08-20T05:00:03;19.30;99.90
38860;DHT22;24609;48.316;16.174;2023-08-20T05:02:29;19.30;99.90
38860;DHT22;24609;48.316;16.174;2023-08-20T05:04:55;19.20;99.90
38860;DHT22;24609;48.316;16.174;2023-08-20T05:07:21;19.20;99.90
38860;DHT22;24609;48.316;16.174;2023-08-20T05:09:46;19.30;99.90
38860;DHT22;24609;48.316;16.174;2023-08-20T05:12:12;19.40;99.90
38860;DHT22;24609;48.316;16.174;2023-08-20T05:14:38;19.30;99.90
38860;DHT22;24609;48.316;16.174;2023-08-20T05:17:04;19.30;99.90
38860;DHT22;24609;48.316;16.174;2023-08-20T05:19:29;19.40;99.90
38860;DHT22;24609;48.316;16.174;2023-08-20T05:21:55;19.50;99.90
38860;DHT22;24609;48.316;16.174;2023-08-20T05:24:24;19.50;99.90
38860;DHT22;24609;48.316;16.174;2023-08-20T05:27:11;19.70;99.90
38860;DHT22;24609;48.316;16.174;2023-08-20T05:29:39;19.80;99.90
38860;DHT22;24609;48.316;16.174;2023-08-20T05:32:06;19.80;99.90
38860;DHT22;24609;48.316;16.174;2023-08-20T05:34:32;19.90;99.90
38860;DHT22;24609;48.316;16.174;2023-08-20T05:36:57;20.00;99.90
38860;DHT22;24609;48.316;16.174;2023-08-20T05:39:23;20.10;99.90
38860;DHT22;24609;48.316;16.174;2023-08-20T05:41:51;20.10;99.90
38860;DHT22;24609;48.316;16.174;2023-08-20T05:44:17;20.20;99.90
38860;DHT22;24609;48.316;16.174;2023-08-20T05:46:43;20.30;99.90
38860;DHT22;24609;48.316;16.174;2023-08-20T05:49:09;20.30;99.90
38860;DHT22;24609;48.316;16.174;2023-08-20T05:51:34;20.50;99.90
38860;DHT22;24609;48.316;16.174;2023-08-20T05:54:00;20.70;99.90
38860;DHT22;24609;48.316;16.174;2023-08-20T05:56:26;20.80;99.90
38860;DHT22;24609;48.316;16.174;2023-08-20T05:58:51;20.90;99.90
38860;DHT22;24609;48.316;16.174;2023-08-20T06:01:17;21.00;99.90
38860;DHT22;24609;48.316;16.174;2023-08-20T06:03:42;21.20;99.90
38860;DHT22;24609;48.316;16.174;2023-08-20T06:06:08;21.40;99.90
38860;DHT22;24609;48.316;16.174;2023-08-20T06:08:34;21.50;99.90
38860;DHT22;24609;48.316;16.174;2023-08-20T06:10:59;21.50;99.90
38860;DHT22;24609;48.316;16.174;2023-08-20T06:13:25;21.80;99.90
38860;DHT22;24609;48.316;16.174;2023-08-20T06:15:51;22.20;99.90
38860;DHT22;24609;48.316;16.174;2023-08-20T06:18:16;22.50;99.90
38860;DHT22;24609;48.316;16.174;2023-08-20T06:20:42;22.90;99.90
38860;DHT22;24609;48.316;16.174;2023-08-20T06:23:07;23.50;1.00
38860;DHT22;24609;48.316;16.174;2023-08-20T06:25:33;23.80;1.00
38860;DHT22;24609;48.316;16.174;2023-08-20T06:27:59;24.40;99.90
38860;DHT22;24609;48.316;16.174;2023-08-20T06:30:24;25.30;99.90
38860;DHT22;24609;48.316;16.174;2023-08-20T06:32:50;25.80;99.90
38860;DHT22;24609;48.316;16.174;2023-08-20T06:35:16;26.20;99.90
38860;DHT22;24609;48.316;16.174;2023-08-20T06:37:42;27.00;99.90
38860;DHT22;24609;48.316;16.174;2023-08-20T06:40:08;28.00;99.90
38860;DHT22;24609;48.316;16.174;2023-08-20T06:42:34;29.00;99.90
38860;DHT22;24609;48.316;16.174;2023-08-20T06:44:59;29.70;99.90
38860;DHT22;24609;48.316;16.174;2023-08-20T06:47:25;30.50;74.20
38860;DHT22;24609;48.316;16.174;2023-08-20T06:49:51;30.70;1.00
38860;DHT22;24609;48.316;16.174;2023-08-20T06:52:17;30.40;99.90
38860;DHT22;24609;48.316;16.174;2023-08-20T06:54:43;30.10;99.90
38860;DHT22;24609;48.316;16.174;2023-08-20T06:57:09;29.40;99.90
38860;DHT22;24609;48.316;16.174;2023-08-20T06:59:35;29.30;99.90
38860;DHT22;24609;48.316;16.174;2023-08-20T07:02:00;30.10;99.90
38860;DHT22;24609;48.316;16.174;2023-08-20T07:04:26;29.80;99.90
38860;DHT22;24609;48.316;16.174;2023-08-20T07:06:52;30.20;51.80
38860;DHT22;24609;48.316;16.174;2023-08-20T07:09:17;30.70;1.00
38860;DHT22;24609;48.316;16.174;2023-08-20T07:11:43;30.60;99.90
38860;DHT22;24609;48.316;16.174;2023-08-20T07:14:09;30.00;99.80
38860;DHT22;24609;48.316;16.174;2023-08-20T07:16:34;29.80;1.00
38860;DHT22;24609;48.316;16.174;2023-08-20T07:19:00;29.90;99.90
38860;DHT22;24609;48.316;16.174;2023-08-20T07:21:26;29.70;99.90
38860;DHT22;24609;48.316;16.174;2023-08-20T07:23:51;28.60;99.90
38860;DHT22;24609;48.316;16.174;2023-08-20T07:26:17;28.60;99.90
38860;DHT22;24609;48.316;16.174;2023-08-20T07:28:43;27.90;99.90
38860;DHT22;24609;48.316;16.174;2023-08-20T07:31:25;27.90;99.90
38860;DHT22;24609;48.316;16.174;2023-08-20T07:33:51;27.80;99.90
38860;DHT22;24609;48.316;16.174;2023-08-20T07:36:18;27.90;1.00
38860;DHT22;24609;48.316;16.174;2023-08-20T07:38:45;27.70;1.00
38860;DHT22;24609;48.316;16.174;2023-08-20T07:41:11;28.10;1.00
38860;DHT22;24609;48.316;16.174;2023-08-20T07:43:38;27.90;1.00
38860;DHT22;24609;48.316;16.174;2023-08-20T07:46:05;28.10;1.00
38860;DHT22;24609;48.316;16.174;2023-08-20T07:48:31;29.20;1.00
38860;DHT22;24609;48.316;16.174;2023-08-20T07:50:57;29.30;1.00
38860;DHT22;24609;48.316;16.174;2023-08-20T07:53:23;28.40;99.90
38860;DHT22;24609;48.316;16.174;2023-08-20T07:55:48;28.30;99.90
38860;DHT22;24609;48.316;16.174;2023-08-20T07:58:14;28.50;99.90
38860;DHT22;24609;48.316;16.174;2023-08-20T08:00:40;29.70;1.00
38860;DHT22;24609;48.316;16.174;2023-08-20T08:03:06;30.50;26.20
38860;DHT22;24609;48.316;16.174;2023-08-20T08:05:32;31.60;1.00
38860;DHT22;24609;48.316;16.174;2023-08-20T08:07:57;32.20;99.90
38860;DHT22;24609;48.316;16.174;2023-08-20T08:10:23;32.50;99.90
38860;DHT22;24609;48.316;16.174;2023-08-20T08:12:49;32.90;1.00
38860;DHT22;24609;48.316;16.174;2023-08-20T08:15:15;33.70;20.10
38860;DHT22;24609;48.316;16.174;2023-08-20T08:17:40;34.70;41.60
38860;DHT22;24609;48.316;16.174;2023-08-20T08:20:06;35.10;46.00
38860;DHT22;24609;48.316;16.174;2023-08-20T08:22:32;35.70;45.30
38860;DHT22;24609;48.316;16.174;2023-08-20T08:24:57;35.80;45.00
38860;DHT22;24609;48.316;16.174;2023-08-20T08:27:23;36.20;45.10
38860;DHT22;24609;48.316;16.174;2023-08-20T08:29:50;34.10;41.70
38860;DHT22;24609;48.316;16.174;2023-08-20T08:32:15;34.50;44.70
38860;DHT22;24609;48.316;16.174;2023-08-20T08:34:41;35.90;44.30
38860;DHT22;24609;48.316;16.174;2023-08-20T08:37:07;35.40;40.90
38860;DHT22;24609;48.316;16.174;2023-08-20T08:39:33;37.00;40.60
38860;DHT22;24609;48.316;16.174;2023-08-20T08:42:01;37.20;37.80
38860;DHT22;24609;48.316;16.174;2023-08-20T08:44:31;37.70;38.00
38860;DHT22;24609;48.316;16.174;2023-08-20T08:47:01;36.90;37.40
38860;DHT22;24609;48.316;16.174;2023-08-20T08:49:27;37.00;36.90
38860;DHT22;24609;48.316;16.174;2023-08-20T08:51:57;37.70;36.40
38860;DHT22;24609;48.316;16.174;2023-08-20T08:54:23;36.80;36.10
38860;DHT22;24609;48.316;16.174;2023-08-20T08:56:50;36.80;35.60
38860;DHT22;24609;48.316;16.174;2023-08-20T08:59:15;38.70;33.50
38860;DHT22;24609;48.316;16.174;2023-08-20T09:01:41;37.40;32.20
38860;DHT22;24609;48.316;16.174;2023-08-20T09:04:08;37.80;32.60
38860;DHT22;24609;48.316;16.174;2023-08-20T09:06:46;38.80;32.80
38860;DHT22;24609;48.316;16.174;2023-08-20T09:09:12;38.80;31.10
38860;DHT22;24609;48.316;16.174;2023-08-20T09:11:38;39.30;30.00
38860;DHT22;24609;48.316;16.174;2023-08-20T09:14:04;40.30;38.60
38860;DHT22;24609;48.316;16.174;2023-08-20T09:16:30;38.60;38.60
38860;DHT22;24609;48.316;16.174;2023-08-20T09:18:59;38.60;40.40
38860;DHT22;24609;48.316;16.174;2023-08-20T09:21:27;41.20;35.90
38860;DHT22;24609;48.316;16.174;2023-08-20T09:23:56;40.70;35.10
38860;DHT22;24609;48.316;16.174;2023-08-20T09:26:25;41.20;33.10
38860;DHT22;24609;48.316;16.174;2023-08-20T09:28:54;41.30;31.40
38860;DHT22;24609;48.316;16.174;2023-08-20T09:31:19;43.10;31.60
38860;DHT22;24609;48.316;16.174;2023-08-20T09:36:15;43.30;27.40
38860;DHT22;24609;48.316;16.174;2023-08-20T09:38:40;44.70;27.00
38860;DHT22;24609;48.316;16.174;2023-08-20T09:41:08;44.40;26.00
38860;DHT22;24609;48.316;16.174;2023-08-20T09:43:38;44.10;26.50
38860;DHT22;24609;48.316;16.174;2023-08-20T09:46:05;41.60;25.40
38860;DHT22;24609;48.316;16.174;2023-08-20T09:48:34;43.10;26.20
38860;DHT22;24609;48.316;16.174;2023-08-20T09:51:05;42.40;24.50
38860;DHT22;24609;48.316;16.174;2023-08-20T09:53:44;43.00;24.80
38860;DHT22;24609;48.316;16.174;2023-08-20T09:56:22;44.40;23.80
38860;DHT22;24609;48.316;16.174;2023-08-20T09:58:50;44.40;23.30
38860;DHT22;24609;48.316;16.174;2023-08-20T10:01:16;44.10;23.70
38860;DHT22;24609;48.316;16.174;2023-08-20T10:03:43;43.60;23.60
38860;DHT22;24609;48.316;16.174;2023-08-20T10:06:09;45.10;22.70
38860;DHT22;24609;48.316;16.174;2023-08-20T10:08:36;42.20;23.20
38860;DHT22;24609;48.316;16.174;2023-08-20T10:11:03;42.70;22.80
38860;DHT22;24609;48.316;16.174;2023-08-20T10:13:30;41.40;24.20
38860;DHT22;24609;48.316;16.174;2023-08-20T10:15:56;42.60;21.40
38860;DHT22;24609;48.316;16.174;2023-08-20T10:18:22;41.80;23.70
38860;DHT22;24609;48.316;16.174;2023-08-20T10:20:51;43.10;24.00
38860;DHT22;24609;48.316;16.174;2023-08-20T10:23:20;45.70;21.10
38860;DHT22;24609;48.316;16.174;2023-08-20T10:25:48;46.90;19.60
38860;DHT22;24609;48.316;16.174;2023-08-20T10:28:22;46.10;18.30
38860;DHT22;24609;48.316;16.174;2023-08-20T10:31:13;45.20;19.60
38860;DHT22;24609;48.316;16.174;2023-08-20T10:36:18;45.60;20.60
38860;DHT22;24609;48.316;16.174;2023-08-20T10:38:49;47.30;19.70
38860;DHT22;24609;48.316;16.174;2023-08-20T10:41:15;47.60;16.00
38860;DHT22;24609;48.316;16.174;2023-08-20T10:43:47;45.80;16.80
38860;DHT22;24609;48.316;16.174;2023-08-20T10:46:24;46.90;18.20
38860;DHT22;24609;48.316;16.174;2023-08-20T10:48:58;46.60;16.70
38860;DHT22;24609;48.316;16.174;2023-08-20T10:51:28;47.50;17.50
38860;DHT22;24609;48.316;16.174;2023-08-20T10:54:05;47.00;14.90
38860;DHT22;24609;48.316;16.174;2023-08-20T10:56:38;44.50;18.30
38860;DHT22;24609;48.316;16.174;2023-08-20T10:59:07;45.90;17.50
38860;DHT22;24609;48.316;16.174;2023-08-20T11:01:34;48.60;15.10
38860;DHT22;24609;48.316;16.174;2023-08-20T11:04:00;49.50;12.60
38860;DHT22;24609;48.316;16.174;2023-08-20T11:06:33;49.50;13.00
38860;DHT22;24609;48.316;16.174;2023-08-20T11:08:59;49.30;13.50
38860;DHT22;24609;48.316;16.174;2023-08-20T11:11:26;48.50;13.90
38860;DHT22;24609;48.316;16.174;2023-08-20T11:13:51;48.10;14.40
38860;DHT22;24609;48.316;16.174;2023-08-20T11:16:17;47.80;14.50
38860;DHT22;24609;48.316;16.174;2023-08-20T11:18:43;46.10;14.80
38860;DHT22;24609;48.316;16.174;2023-08-20T11:21:09;47.50;14.70
38860;DHT22;24609;48.316;16.174;2023-08-20T11:23:35;49.00;12.50
38860;DHT22;24609;48.316;16.174;2023-08-20T11:26:01;48.60;13.00
38860;DHT22;24609;48.316;16.174;2023-08-20T11:28:28;47.60;14.40
38860;DHT22;24609;48.316;16.174;2023-08-20T11:30:54;49.70;11.90
38860;DHT22;24609;48.316;16.174;2023-08-20T11:33:22;48.80;11.30
38860;DHT22;24609;48.316;16.174;2023-08-20T11:35:48;47.60;12.60
38860;DHT22;24609;48.316;16.174;2023-08-20T11:38:14;49.30;11.00
38860;DHT22;24609;48.316;16.174;2023-08-20T11:40:40;49.40;11.20
38860;DHT22;24609;48.316;16.174;2023-08-20T11:43:06;50.10;10.50
38860;DHT22;24609;48.316;16.174;2023-08-20T11:45:33;49.90;11.00
38860;DHT22;24609;48.316;16.174;2023-08-20T11:48:09;50.70;9.20
38860;DHT22;24609;48.316;16.174;2023-08-20T11:50:35;49.40;9.20
38860;DHT22;24609;48.316;16.174;2023-08-20T11:53:03;49.70;9.20
38860;DHT22;24609;48.316;16.174;2023-08-20T11:55:30;48.70;9.50
38860;DHT22;24609;48.316;16.174;2023-08-20T11:57:55;48.20;10.20
38860;DHT22;24609;48.316;16.174;2023-08-20T12:00:31;49.30;8.90
38860;DHT22;24609;48.316;16.174;2023-08-20T12:02:57;49.70;10.30
38860;DHT22;24609;48.316;16.174;2023-08-20T12:05:29;49.40;9.60
38860;DHT22;24609;48.316;16.174;2023-08-20T12:08:04;50.20;8.70
38860;DHT22;24609;48.316;16.174;2023-08-20T12:10:32;49.90;8.20
38860;DHT22;24609;48.316;16.174;2023-08-20T12:12:58;50.00;8.80
38860;DHT22;24609;48.316;16.174;2023-08-20T12:15:25;49.90;7.20
38860;DHT22;24609;48.316;16.174;2023-08-20T12:20:22;51.00;8.50
38860;DHT22;24609;48.316;16.174;2023-08-20T12:22:48;50.80;7.30
38860;DHT22;24609;48.316;16.174;2023-08-20T12:25:14;51.60;7.00
38860;DHT22;24609;48.316;16.174;2023-08-20T12:27:41;50.70;7.80
38860;DHT22;24609;48.316;16.174;2023-08-20T12:30:07;51.80;8.00
38860;DHT22;24609;48.316;16.174;2023-08-20T12:32:33;52.60;6.70
38860;DHT22;24609;48.316;16.174;2023-08-20T12:34:58;50.50;4.50
38860;DHT22;24609;48.316;16.174;2023-08-20T12:37:24;49.20;8.10
38860;DHT22;24609;48.316;16.174;2023-08-20T12:39:50;49.30;7.40
38860;DHT22;24609;48.316;16.174;2023-08-20T12:42:15;48.40;7.80
38860;DHT22;24609;48.316;16.174;2023-08-20T12:44:41;49.60;8.30
38860;DHT22;24609;48.316;16.174;2023-08-20T12:47:07;51.60;7.30
38860;DHT22;24609;48.316;16.174;2023-08-20T12:49:32;51.60;6.10
38860;DHT22;24609;48.316;16.174;2023-08-20T12:51:58;51.60;6.30
38860;DHT22;24609;48.316;16.174;2023-08-20T12:54:24;50.70;6.60
38860;DHT22;24609;48.316;16.174;2023-08-20T12:56:49;46.90;6.10
38860;DHT22;24609;48.316;16.174;2023-08-20T12:59:15;46.80;9.30
38860;DHT22;24609;48.316;16.174;2023-08-20T13:01:40;47.30;8.20
38860;DHT22;24609;48.316;16.174;2023-08-20T13:04:07;47.00;9.10
38860;DHT22;24609;48.316;16.174;2023-08-20T13:06:33;47.70;9.40
38860;DHT22;24609;48.316;16.174;2023-08-20T13:08:58;49.00;8.90
38860;DHT22;24609;48.316;16.174;2023-08-20T13:11:25;49.00;7.60
38860;DHT22;24609;48.316;16.174;2023-08-20T13:13:51;48.60;8.00
38860;DHT22;24609;48.316;16.174;2023-08-20T13:16:18;50.20;7.40
38860;DHT22;24609;48.316;16.174;2023-08-20T13:18:45;49.60;6.90
38860;DHT22;24609;48.316;16.174;2023-08-20T13:21:10;49.60;7.10
38860;DHT22;24609;48.316;16.174;2023-08-20T13:23:36;47.40;7.90
38860;DHT22;24609;48.316;16.174;2023-08-20T13:26:02;49.20;7.50
38860;DHT22;24609;48.316;16.174;2023-08-20T13:28:28;49.10;7.60
38860;DHT22;24609;48.316;16.174;2023-08-20T13:30:53;48.20;8.10
38860;DHT22;24609;48.316;16.174;2023-08-20T13:33:19;49.40;7.80
38860;DHT22;24609;48.316;16.174;2023-08-20T13:35:45;46.70;6.70
38860;DHT22;24609;48.316;16.174;2023-08-20T13:38:11;45.70;8.00
38860;DHT22;24609;48.316;16.174;2023-08-20T13:40:37;47.00;9.30
38860;DHT22;24609;48.316;16.174;2023-08-20T13:43:03;49.80;8.00
38860;DHT22;24609;48.316;16.174;2023-08-20T13:45:29;50.90;7.00
38860;DHT22;24609;48.316;16.174;2023-08-20T13:47:54;52.40;6.10
38860;DHT22;24609;48.316;16.174;2023-08-20T13:50:21;50.40;4.80
38860;DHT22;24609;48.316;16.174;2023-08-20T13:52:46;48.00;5.70
38860;DHT22;24609;48.316;16.174;2023-08-20T13:55:12;48.30;6.80
38860;DHT22;24609;48.316;16.174;2023-08-20T13:57:38;48.60;6.00
38860;DHT22;24609;48.316;16.174;2023-08-20T14:00:05;47.90;7.10
38860;DHT22;24609;48.316;16.174;2023-08-20T14:02:37;44.10;11.30
38860;DHT22;24609;48.316;16.174;2023-08-20T14:05:03;40.90;13.20
38860;DHT22;24609;48.316;16.174;2023-08-20T14:07:32;40.00;15.60
38860;DHT22;24609;48.316;16.174;2023-08-20T14:09:58;40.60;15.20
38860;DHT22;24609;48.316;16.174;2023-08-20T14:12:25;40.10;13.70
38860;DHT22;24609;48.316;16.174;2023-08-20T14:14:51;39.30;16.50
38860;DHT22;24609;48.316;16.174;2023-08-20T14:17:16;39.10;16.30
38860;DHT22;24609;48.316;16.174;2023-08-20T14:19:42;39.20;16.50
38860;DHT22;24609;48.316;16.174;2023-08-20T14:22:08;39.70;16.60
38860;DHT22;24609;48.316;16.174;2023-08-20T14:24:34;39.50;15.50
38860;DHT22;24609;48.316;16.174;2023-08-20T14:26:59;40.10;16.20
38860;DHT22;24609;48.316;16.174;2023-08-20T14:29:25;41.90;13.70
38860;DHT22;24609;48.316;16.174;2023-08-20T14:31:51;41.70;13.20
38860;DHT22;24609;48.316;16.174;2023-08-20T14:34:16;40.30;15.30
38860;DHT22;24609;48.316;16.174;2023-08-20T14:36:42;39.10;15.40
38860;DHT22;24609;48.316;16.174;2023-08-20T14:39:07;38.50;17.80
38860;DHT22;24609;48.316;16.174;2023-08-20T14:41:33;38.40;16.80
38860;DHT22;24609;48.316;16.174;2023-08-20T14:43:59;37.30;18.60
38860;DHT22;24609;48.316;16.174;2023-08-20T14:46:25;37.20;20.00
38860;DHT22;24609;48.316;16.174;2023-08-20T14:48:50;36.90;20.70
38860;DHT22;24609;48.316;16.174;2023-08-20T14:51:16;36.60;20.80
38860;DHT22;24609;48.316;16.174;2023-08-20T14:53:42;36.50;21.70
38860;DHT22;24609;48.316;16.174;2023-08-20T14:56:07;35.90;21.20
38860;DHT22;24609;48.316;16.174;2023-08-20T14:58:33;35.10;23.10
38860;DHT22;24609;48.316;16.174;2023-08-20T15:00:59;34.60;24.80
38860;DHT22;24609;48.316;16.174;2023-08-20T15:03:25;34.00;26.20
38860;DHT22;24609;48.316;16.174;2023-08-20T15:05:51;33.60;27.90
38860;DHT22;24609;48.316;16.174;2023-08-20T15:08:16;33.30;29.70
38860;DHT22;24609;48.316;16.174;2023-08-20T15:10:42;33.00;29.00
38860;DHT22;24609;48.316;16.174;2023-08-20T15:13:08;32.90;29.70
38860;DHT22;24609;48.316;16.174;2023-08-20T15:15:33;32.70;32.50
38860;DHT22;24609;48.316;16.174;2023-08-20T15:17:59;32.60;31.20
38860;DHT22;24609;48.316;16.174;2023-08-20T15:20:24;32.40;32.00
38860;DHT22;24609;48.316;16.174;2023-08-20T15:22:51;32.30;32.40
38860;DHT22;24609;48.316;16.174;2023-08-20T15:25:16;32.20;33.60
38860;DHT22;24609;48.316;16.174;2023-08-20T15:27:42;32.20;33.80
38860;DHT22;24609;48.316;16.174;2023-08-20T15:30:09;32.20;33.80